sensor_id;sensor_type;location;lat;lon;timestamp;pressure;altitude;pressure_sealevel;temperature;humidity
30935;BME280;51033;42.648;23.292;2023-08-30T00:00:54;93003.66;;;22.07;58.49
30935;BME280;51033;42.648;23.292;2023-08-30T00:03:19;92998.69;;;22.02;58.48
30935;BME280;51033;42.648;23.292;2023-08-30T00:05:45;93002.94;;;22.03;58.97
30935;BME280;51033;42.648;23.292;2023-08-30T00:08:10;92990.66;;;21.92;55.92
30935;BME280;51033;42.648;23.292;2023-08-30T00:10:36;93003.09;;;21.89;54.50
30935;BME280;51033;42.648;23.292;2023-08-30T00:13:03;93013.09;;;21.92;54.87
30935;BME280;51033;42.648;23.292;2023-08-30T00:15:29;93014.97;;;21.95;52.84
30935;BME280;51033;42.648;23.292;2023-08-30T00:17:54;93007.47;;;21.76;51.58
30935;BME280;51033;42.648;23.292;2023-08-30T00:20:20;93015.53;;;21.83;50.70
30935;BME280;51033;42.648;23.292;2023-08-30T00:22:47;93018.06;;;21.97;49.78
30935;BME280;51033;42.648;23.292;2023-08-30T00:25:13;93004.59;;;21.94;49.78
30935;BME280;51033;42.648;23.292;2023-08-30T00:27:39;93003.84;;;21.90;49.83
30935;BME280;51033;42.648;23.292;2023-08-30T00:30:05;93002.03;;;21.79;49.86
30935;BME280;51033;42.648;23.292;2023-08-30T00:32:30;93010.53;;;21.78;50.09
30935;BME280;51033;42.648;23.292;2023-08-30T00:34:56;93002.81;;;21.80;49.35
30935;BME280;51033;42.648;23.292;2023-08-30T00:37:21;92987.50;;;21.63;49.58
30935;BME280;51033;42.648;23.292;2023-08-30T00:39:47;92984.06;;;21.59;49.67
30935;BME280;51033;42.648;23.292;2023-08-30T00:42:12;93001.31;;;21.72;50.10
30935;BME280;51033;42.648;23.292;2023-08-30T00:44:37;93000.63;;;21.64;50.36
30935;BME280;51033;42.648;23.292;2023-08-30T00:47:03;93010.31;;;21.62;50.42
30935;BME280;51033;42.648;23.292;2023-08-30T00:49:30;92995.31;;;21.54;50.05
30935;BME280;51033;42.648;23.292;2023-08-30T00:51:57;93012.28;;;21.58;51.14
30935;BME280;51033;42.648;23.292;2023-08-30T00:54:22;93022.41;;;21.46;51.26
30935;BME280;51033;42.648;23.292;2023-08-30T00:56:48;93025.16;;;21.43;51.16
30935;BME280;51033;42.648;23.292;2023-08-30T00:59:15;93022.81;;;21.45;50.93
30935;BME280;51033;42.648;23.292;2023-08-30T01:01:41;93026.31;;;21.45;50.95
30935;BME280;51033;42.648;23.292;2023-08-30T01:04:07;93008.53;;;21.44;51.63
30935;BME280;51033;42.648;23.292;2023-08-30T01:06:33;93014.72;;;21.41;50.48
30935;BME280;51033;42.648;23.292;2023-08-30T01:09:01;93009.31;;;21.41;50.26
30935;BME280;51033;42.648;23.292;2023-08-30T01:11:43;93019.81;;;21.32;49.37
30935;BME280;51033;42.648;23.292;2023-08-30T01:14:37;93025.66;;;21.27;49.37
30935;BME280;51033;42.648;23.292;2023-08-30T01:17:05;93028.75;;;21.29;50.77
30935;BME280;51033;42.648;23.292;2023-08-30T01:22:08;93029.56;;;21.26;50.04
30935;BME280;51033;42.648;23.292;2023-08-30T01:24:44;93036.47;;;21.31;49.86
30935;BME280;51033;42.648;23.292;2023-08-30T01:27:11;93035.00;;;21.19;50.08
30935;BME280;51033;42.648;23.292;2023-08-30T01:29:38;93012.34;;;21.06;49.83
30935;BME280;51033;42.648;23.292;2023-08-30T01:32:08;93020.34;;;21.20;49.87
30935;BME280;51033;42.648;23.292;2023-08-30T01:34:35;93021.50;;;21.19;49.64
30935;BME280;51033;42.648;23.292;2023-08-30T01:37:04;93036.53;;;21.24;48.76
30935;BME280;51033;42.648;23.292;2023-08-30T01:39:31;93010.25;;;21.24;49.13
30935;BME280;51033;42.648;23.292;2023-08-30T01:41:57;93030.69;;;21.29;49.68
30935;BME280;51033;42.648;23.292;2023-08-30T01:44:27;93038.75;;;21.32;49.71
30935;BME280;51033;42.648;23.292;2023-08-30T01:46:54;93031.38;;;21.36;49.99
30935;BME280;51033;42.648;23.292;2023-08-30T01:49:21;93027.16;;;21.35;51.34
30935;BME280;51033;42.648;23.292;2023-08-30T01:51:46;93023.72;;;21.28;51.61
30935;BME280;51033;42.648;23.292;2023-08-30T01:54:17;93020.34;;;21.20;49.12
30935;BME280;51033;42.648;23.292;2023-08-30T01:56:43;93024.16;;;21.26;50.25
30935;BME280;51033;42.648;23.292;2023-08-30T01:59:08;93018.09;;;21.12;51.61
30935;BME280;51033;42.648;23.292;2023-08-30T02:01:34;93036.56;;;21.20;50.93
30935;BME280;51033;42.648;23.292;2023-08-30T02:03:59;93036.13;;;21.25;50.82
30935;BME280;51033;42.648;23.292;2023-08-30T02:06:48;93036.16;;;21.18;51.66
30935;BME280;51033;42.648;23.292;2023-08-30T02:09:29;93018.53;;;21.07;49.39
30935;BME280;51033;42.648;23.292;2023-08-30T02:12:00;93017.66;;;21.13;48.46
30935;BME280;51033;42.648;23.292;2023-08-30T02:14:30;93023.00;;;21.24;47.01
30935;BME280;51033;42.648;23.292;2023-08-30T02:16:57;93019.16;;;21.21;48.37
30935;BME280;51033;42.648;23.292;2023-08-30T02:19:23;93007.94;;;21.23;46.88
30935;BME280;51033;42.648;23.292;2023-08-30T02:21:49;93019.22;;;21.14;46.36
30935;BME280;51033;42.648;23.292;2023-08-30T02:24:14;93011.53;;;21.09;46.68
30935;BME280;51033;42.648;23.292;2023-08-30T02:26:40;93011.22;;;21.00;44.41
30935;BME280;51033;42.648;23.292;2023-08-30T02:29:05;92992.72;;;20.95;45.71
30935;BME280;51033;42.648;23.292;2023-08-30T02:31:31;93019.69;;;21.06;45.78
30935;BME280;51033;42.648;23.292;2023-08-30T02:33:56;93001.94;;;21.01;46.75
30935;BME280;51033;42.648;23.292;2023-08-30T02:36:22;93023.47;;;21.15;46.52
30935;BME280;51033;42.648;23.292;2023-08-30T02:38:47;93019.59;;;21.16;46.94
30935;BME280;51033;42.648;23.292;2023-08-30T02:41:13;93021.91;;;21.14;46.95
30935;BME280;51033;42.648;23.292;2023-08-30T02:43:38;93028.06;;;21.18;47.10
30935;BME280;51033;42.648;23.292;2023-08-30T02:46:03;92986.97;;;20.89;47.33
30935;BME280;51033;42.648;23.292;2023-08-30T02:48:31;93005.38;;;21.05;47.34
30935;BME280;51033;42.648;23.292;2023-08-30T02:50:56;93010.72;;;21.12;47.45
30935;BME280;51033;42.648;23.292;2023-08-30T02:53:23;93002.69;;;21.05;47.73
30935;BME280;51033;42.648;23.292;2023-08-30T02:55:48;92998.81;;;21.02;46.63
30935;BME280;51033;42.648;23.292;2023-08-30T02:58:13;92996.03;;;21.13;46.39
30935;BME280;51033;42.648;23.292;2023-08-30T03:00:39;93006.50;;;21.08;47.49
30935;BME280;51033;42.648;23.292;2023-08-30T03:03:04;93008.81;;;21.09;46.81
30935;BME280;51033;42.648;23.292;2023-08-30T03:05:30;92985.00;;;20.97;46.37
30935;BME280;51033;42.648;23.292;2023-08-30T03:07:55;92999.59;;;21.07;47.58
30935;BME280;51033;42.648;23.292;2023-08-30T03:10:20;93008.13;;;20.98;46.93
30935;BME280;51033;42.648;23.292;2023-08-30T03:12:46;92996.63;;;20.90;46.97
30935;BME280;51033;42.648;23.292;2023-08-30T03:15:11;93010.84;;;20.98;47.03
30935;BME280;51033;42.648;23.292;2023-08-30T03:17:36;93016.25;;;20.98;46.66
30935;BME280;51033;42.648;23.292;2023-08-30T03:20:05;93014.38;;;20.88;46.56
30935;BME280;51033;42.648;23.292;2023-08-30T03:22:31;93010.56;;;20.82;47.25
30935;BME280;51033;42.648;23.292;2023-08-30T03:24:57;93003.22;;;20.79;47.43
30935;BME280;51033;42.648;23.292;2023-08-30T03:27:23;92999.84;;;20.68;47.76
30935;BME280;51033;42.648;23.292;2023-08-30T03:29:48;92993.31;;;20.62;48.04
30935;BME280;51033;42.648;23.292;2023-08-30T03:32:17;92989.09;;;20.53;48.42
30935;BME280;51033;42.648;23.292;2023-08-30T03:34:48;92988.72;;;20.55;48.44
30935;BME280;51033;42.648;23.292;2023-08-30T03:37:14;92996.81;;;20.55;48.99
30935;BME280;51033;42.648;23.292;2023-08-30T03:39:40;92998.81;;;20.47;49.17
30935;BME280;51033;42.648;23.292;2023-08-30T03:42:05;92993.81;;;20.39;49.47
30935;BME280;51033;42.648;23.292;2023-08-30T03:44:32;92989.19;;;20.39;49.27
30935;BME280;51033;42.648;23.292;2023-08-30T03:46:57;92988.44;;;20.35;49.39
30935;BME280;51033;42.648;23.292;2023-08-30T03:49:23;92986.16;;;20.30;49.51
30935;BME280;51033;42.648;23.292;2023-08-30T03:51:48;92990.06;;;20.22;49.40
30935;BME280;51033;42.648;23.292;2023-08-30T03:54:13;93004.31;;;20.26;49.00
30935;BME280;51033;42.648;23.292;2023-08-30T03:56:42;93010.88;;;20.25;50.00
30935;BME280;51033;42.648;23.292;2023-08-30T03:59:07;93008.22;;;20.18;50.27
30935;BME280;51033;42.648;23.292;2023-08-30T04:01:33;93021.72;;;20.18;50.30
30935;BME280;51033;42.648;23.292;2023-08-30T04:03:58;93028.25;;;20.10;50.21
30935;BME280;51033;42.648;23.292;2023-08-30T04:06:24;93020.56;;;20.01;50.67
30935;BME280;51033;42.648;23.292;2023-08-30T04:08:49;93008.63;;;20.02;51.17
30935;BME280;51033;42.648;23.292;2023-08-30T04:11:14;93011.66;;;20.11;51.44
30935;BME280;51033;42.648;23.292;2023-08-30T04:13:40;93013.63;;;20.07;52.03
30935;BME280;51033;42.648;23.292;2023-08-30T04:16:05;93018.25;;;20.17;52.90
30935;BME280;51033;42.648;23.292;2023-08-30T04:18:30;93022.88;;;20.17;53.38
30935;BME280;51033;42.648;23.292;2023-08-30T04:20:58;93022.47;;;20.22;52.57
30935;BME280;51033;42.648;23.292;2023-08-30T04:23:23;93035.88;;;20.36;51.94
30935;BME280;51033;42.648;23.292;2023-08-30T04:25:49;93042.38;;;20.49;51.43
30935;BME280;51033;42.648;23.292;2023-08-30T04:28:14;93040.00;;;20.58;51.37
30935;BME280;51033;42.648;23.292;2023-08-30T04:30:40;93039.25;;;20.62;49.57
30935;BME280;51033;42.648;23.292;2023-08-30T04:33:05;93063.81;;;20.81;49.45
30935;BME280;51033;42.648;23.292;2023-08-30T04:35:31;93066.53;;;20.78;49.61
30935;BME280;51033;42.648;23.292;2023-08-30T04:37:58;93062.25;;;20.84;49.60
30935;BME280;51033;42.648;23.292;2023-08-30T04:40:24;93080.75;;;20.92;49.91
30935;BME280;51033;42.648;23.292;2023-08-30T04:42:49;93062.25;;;20.84;49.54
30935;BME280;51033;42.648;23.292;2023-08-30T04:45:15;93065.69;;;20.95;49.65
30935;BME280;51033;42.648;23.292;2023-08-30T04:47:40;93083.78;;;21.05;49.38
30935;BME280;51033;42.648;23.292;2023-08-30T04:50:08;93067.19;;;21.03;47.73
30935;BME280;51033;42.648;23.292;2023-08-30T04:52:34;93079.13;;;21.09;46.56
30935;BME280;51033;42.648;23.292;2023-08-30T04:54:59;93079.91;;;21.06;46.31
30935;BME280;51033;42.648;23.292;2023-08-30T04:57:25;93069.97;;;20.89;44.11
30935;BME280;51033;42.648;23.292;2023-08-30T04:59:50;93065.78;;;20.77;44.03
30935;BME280;51033;42.648;23.292;2023-08-30T05:02:16;93059.28;;;20.68;43.72
30935;BME280;51033;42.648;23.292;2023-08-30T05:04:41;93073.56;;;20.65;43.81
30935;BME280;51033;42.648;23.292;2023-08-30T05:07:07;93071.59;;;20.69;44.23
30935;BME280;51033;42.648;23.292;2023-08-30T05:09:33;93064.69;;;20.68;44.90
30935;BME280;51033;42.648;23.292;2023-08-30T05:12:00;93063.56;;;20.54;43.85
30935;BME280;51033;42.648;23.292;2023-08-30T05:14:25;93068.50;;;20.70;44.71
30935;BME280;51033;42.648;23.292;2023-08-30T05:16:51;93060.78;;;20.76;44.57
30935;BME280;51033;42.648;23.292;2023-08-30T05:19:16;93065.44;;;20.72;45.14
30935;BME280;51033;42.648;23.292;2023-08-30T05:21:43;93061.50;;;20.87;44.08
30935;BME280;51033;42.648;23.292;2023-08-30T05:24:08;93061.84;;;20.96;44.27
30935;BME280;51033;42.648;23.292;2023-08-30T05:26:33;93069.19;;;20.92;44.67
30935;BME280;51033;42.648;23.292;2023-08-30T05:28:59;93078.81;;;20.93;45.74
30935;BME280;51033;42.648;23.292;2023-08-30T05:31:24;93074.25;;;20.79;47.18
30935;BME280;51033;42.648;23.292;2023-08-30T05:33:50;93089.63;;;20.96;47.99
30935;BME280;51033;42.648;23.292;2023-08-30T05:36:15;93086.91;;;21.00;47.14
30935;BME280;51033;42.648;23.292;2023-08-30T05:38:40;93084.09;;;21.14;46.88
30935;BME280;51033;42.648;23.292;2023-08-30T05:41:07;93075.97;;;21.18;46.81
30935;BME280;51033;42.648;23.292;2023-08-30T05:43:32;93085.97;;;21.24;47.61
30935;BME280;51033;42.648;23.292;2023-08-30T05:45:58;93061.50;;;20.80;47.55
30935;BME280;51033;42.648;23.292;2023-08-30T05:48:27;93079.13;;;21.09;47.39
30935;BME280;51033;42.648;23.292;2023-08-30T05:50:53;93076.69;;;21.25;47.51
30935;BME280;51033;42.648;23.292;2023-08-30T05:53:18;93080.53;;;21.31;46.58
30935;BME280;51033;42.648;23.292;2023-08-30T05:55:43;93061.06;;;21.47;45.55
30935;BME280;51033;42.648;23.292;2023-08-30T05:58:09;93063.34;;;21.56;45.83
30935;BME280;51033;42.648;23.292;2023-08-30T06:00:34;93092.63;;;21.64;44.74
30935;BME280;51033;42.648;23.292;2023-08-30T06:03:00;93084.84;;;21.70;44.11
30935;BME280;51033;42.648;23.292;2023-08-30T06:05:26;93081.09;;;21.57;45.60
30935;BME280;51033;42.648;23.292;2023-08-30T06:07:51;93072.50;;;21.69;45.46
30935;BME280;51033;42.648;23.292;2023-08-30T06:10:17;93065.91;;;21.70;44.23
30935;BME280;51033;42.648;23.292;2023-08-30T06:12:42;93073.09;;;21.87;45.05
30935;BME280;51033;42.648;23.292;2023-08-30T06:15:08;93070.75;;;21.89;43.52
30935;BME280;51033;42.648;23.292;2023-08-30T06:17:33;93080.78;;;21.92;43.92
30935;BME280;51033;42.648;23.292;2023-08-30T06:19:59;93068.34;;;21.98;44.50
30935;BME280;51033;42.648;23.292;2023-08-30T06:22:24;93066.75;;;22.01;44.96
30935;BME280;51033;42.648;23.292;2023-08-30T06:24:50;93064.03;;;22.04;44.78
30935;BME280;51033;42.648;23.292;2023-08-30T06:27:15;93064.34;;;22.10;45.13
30935;BME280;51033;42.648;23.292;2023-08-30T06:29:40;93085.13;;;22.23;43.93
30935;BME280;51033;42.648;23.292;2023-08-30T06:32:07;93082.41;;;22.23;43.86
30935;BME280;51033;42.648;23.292;2023-08-30T06:34:32;93076.63;;;22.21;45.39
30935;BME280;51033;42.648;23.292;2023-08-30T06:36:58;93078.91;;;22.19;45.21
30935;BME280;51033;42.648;23.292;2023-08-30T06:39:23;93083.41;;;22.37;44.72
30935;BME280;51033;42.648;23.292;2023-08-30T06:41:49;93076.56;;;22.28;44.99
30935;BME280;51033;42.648;23.292;2023-08-30T06:44:14;93086.69;;;22.55;44.06
30935;BME280;51033;42.648;23.292;2023-08-30T06:46:40;93086.91;;;22.67;42.94
30935;BME280;51033;42.648;23.292;2023-08-30T06:49:06;93084.72;;;22.55;44.03
30935;BME280;51033;42.648;23.292;2023-08-30T06:51:34;93082.41;;;22.54;45.26
30935;BME280;51033;42.648;23.292;2023-08-30T06:54:00;93079.72;;;22.54;44.46
30935;BME280;51033;42.648;23.292;2023-08-30T06:56:27;93071.47;;;22.64;44.08
30935;BME280;51033;42.648;23.292;2023-08-30T06:58:52;93088.66;;;22.51;44.15
30935;BME280;51033;42.648;23.292;2023-08-30T07:01:17;93059.91;;;22.60;44.79
30935;BME280;51033;42.648;23.292;2023-08-30T07:03:43;93086.97;;;22.94;42.41
30935;BME280;51033;42.648;23.292;2023-08-30T07:06:09;93078.13;;;22.90;42.00
30935;BME280;51033;42.648;23.292;2023-08-30T07:08:34;93054.97;;;22.82;42.29
30935;BME280;51033;42.648;23.292;2023-08-30T07:11:00;93081.09;;;22.99;43.20
30935;BME280;51033;42.648;23.292;2023-08-30T07:13:25;93076.84;;;22.98;42.60
30935;BME280;51033;42.648;23.292;2023-08-30T07:15:51;93074.03;;;23.05;41.57
30935;BME280;51033;42.648;23.292;2023-08-30T07:18:16;93083.19;;;23.15;41.68
30935;BME280;51033;42.648;23.292;2023-08-30T07:20:42;93082.41;;;23.14;41.33
30935;BME280;51033;42.648;23.292;2023-08-30T07:23:07;93083.91;;;23.19;40.66
30935;BME280;51033;42.648;23.292;2023-08-30T07:25:33;93079.09;;;23.03;41.29
30935;BME280;51033;42.648;23.292;2023-08-30T07:27:59;93094.19;;;23.04;41.45
30935;BME280;51033;42.648;23.292;2023-08-30T07:30:25;93083.44;;;22.97;41.43
30935;BME280;51033;42.648;23.292;2023-08-30T07:32:50;93082.09;;;23.09;42.01
30935;BME280;51033;42.648;23.292;2023-08-30T07:35:16;93091.00;;;23.09;41.95
30935;BME280;51033;42.648;23.292;2023-08-30T07:37:41;93093.34;;;23.07;41.19
30935;BME280;51033;42.648;23.292;2023-08-30T07:40:07;93096.34;;;23.17;41.83
30935;BME280;51033;42.648;23.292;2023-08-30T07:42:33;93074.75;;;23.09;40.96
30935;BME280;51033;42.648;23.292;2023-08-30T07:44:59;93073.81;;;23.20;41.49
30935;BME280;51033;42.648;23.292;2023-08-30T07:47:24;93072.19;;;22.99;40.82
30935;BME280;51033;42.648;23.292;2023-08-30T07:49:50;93075.59;;;23.03;40.28
30935;BME280;51033;42.648;23.292;2023-08-30T07:52:15;93078.53;;;23.15;40.47
30935;BME280;51033;42.648;23.292;2023-08-30T07:54:40;93081.78;;;23.07;39.27
30935;BME280;51033;42.648;23.292;2023-08-30T07:57:06;93080.28;;;23.02;39.40
30935;BME280;51033;42.648;23.292;2023-08-30T07:59:36;93089.59;;;23.01;39.91
30935;BME280;51033;42.648;23.292;2023-08-30T08:02:03;93096.34;;;23.17;39.17
30935;BME280;51033;42.648;23.292;2023-08-30T08:04:29;93088.50;;;23.22;39.57
30935;BME280;51033;42.648;23.292;2023-08-30T08:06:55;93087.44;;;23.16;40.10
30935;BME280;51033;42.648;23.292;2023-08-30T08:09:20;93074.03;;;23.05;40.59
30935;BME280;51033;42.648;23.292;2023-08-30T08:11:48;93091.69;;;23.17;40.63
30935;BME280;51033;42.648;23.292;2023-08-30T08:14:13;93089.31;;;23.19;40.39
30935;BME280;51033;42.648;23.292;2023-08-30T08:16:39;93091.97;;;23.23;40.32
30935;BME280;51033;42.648;23.292;2023-08-30T08:19:04;93086.91;;;23.25;40.38
30935;BME280;51033;42.648;23.292;2023-08-30T08:21:31;93067.91;;;23.01;40.45
30935;BME280;51033;42.648;23.292;2023-08-30T08:23:56;93088.56;;;23.19;41.38
30935;BME280;51033;42.648;23.292;2023-08-30T08:26:22;93093.13;;;23.25;41.47
30935;BME280;51033;42.648;23.292;2023-08-30T08:28:47;93099.56;;;23.35;40.40
30935;BME280;51033;42.648;23.292;2023-08-30T08:31:12;93109.06;;;23.50;40.83
30935;BME280;51033;42.648;23.292;2023-08-30T08:33:39;93096.72;;;23.42;40.14
30935;BME280;51033;42.648;23.292;2023-08-30T08:36:05;93056.72;;;23.23;39.64
30935;BME280;51033;42.648;23.292;2023-08-30T08:38:30;93100.50;;;23.48;39.84
30935;BME280;51033;42.648;23.292;2023-08-30T08:41:02;93107.50;;;23.49;40.49
30935;BME280;51033;42.648;23.292;2023-08-30T08:43:29;93107.56;;;23.42;40.02
30935;BME280;51033;42.648;23.292;2023-08-30T08:45:57;93102.69;;;23.33;40.82
30935;BME280;51033;42.648;23.292;2023-08-30T08:48:26;93100.50;;;23.48;40.09
30935;BME280;51033;42.648;23.292;2023-08-30T08:50:54;93093.13;;;23.48;40.09
30935;BME280;51033;42.648;23.292;2023-08-30T08:53:20;93105.44;;;23.56;39.48
30935;BME280;51033;42.648;23.292;2023-08-30T08:55:47;93084.69;;;23.43;40.52
30935;BME280;51033;42.648;23.292;2023-08-30T08:58:14;93085.81;;;23.49;40.62
30935;BME280;51033;42.648;23.292;2023-08-30T09:00:41;93095.84;;;23.25;40.13
30935;BME280;51033;42.648;23.292;2023-08-30T09:03:08;93093.06;;;23.29;40.77
30935;BME280;51033;42.648;23.292;2023-08-30T09:05:35;93092.25;;;23.32;40.91
30935;BME280;51033;42.648;23.292;2023-08-30T09:08:04;93087.94;;;23.34;40.69
30935;BME280;51033;42.648;23.292;2023-08-30T09:10:34;93091.59;;;23.51;41.09
30935;BME280;51033;42.648;23.292;2023-08-30T09:12:59;93095.00;;;23.55;42.24
30935;BME280;51033;42.648;23.292;2023-08-30T09:15:32;93089.53;;;23.58;42.86
30935;BME280;51033;42.648;23.292;2023-08-30T09:17:58;93085.81;;;23.72;41.83
30935;BME280;51033;42.648;23.292;2023-08-30T09:20:23;93069.88;;;23.74;41.04
30935;BME280;51033;42.648;23.292;2023-08-30T09:22:48;93067.03;;;23.81;39.76
30935;BME280;51033;42.648;23.292;2023-08-30T09:25:24;93072.81;;;23.83;39.05
30935;BME280;51033;42.648;23.292;2023-08-30T09:27:50;93080.84;;;23.90;39.48
30935;BME280;51033;42.648;23.292;2023-08-30T09:30:21;93082.59;;;23.77;38.81
30935;BME280;51033;42.648;23.292;2023-08-30T09:32:48;93075.72;;;23.73;37.97
30935;BME280;51033;42.648;23.292;2023-08-30T09:35:13;93078.50;;;23.69;38.38
30935;BME280;51033;42.648;23.292;2023-08-30T09:37:38;93076.84;;;23.75;38.51
30935;BME280;51033;42.648;23.292;2023-08-30T09:40:05;93083.03;;;23.76;38.38
30935;BME280;51033;42.648;23.292;2023-08-30T09:42:31;93072.53;;;23.78;37.99
30935;BME280;51033;42.648;23.292;2023-08-30T09:44:56;93073.88;;;23.89;38.26
30935;BME280;51033;42.648;23.292;2023-08-30T09:47:24;93085.78;;;23.95;38.88
30935;BME280;51033;42.648;23.292;2023-08-30T09:49:54;93064.19;;;23.88;40.22
30935;BME280;51033;42.648;23.292;2023-08-30T09:52:25;93069.44;;;23.99;39.35
30935;BME280;51033;42.648;23.292;2023-08-30T09:54:54;93052.50;;;23.91;40.14
30935;BME280;51033;42.648;23.292;2023-08-30T09:57:21;93062.06;;;23.99;39.50
30935;BME280;51033;42.648;23.292;2023-08-30T09:59:48;93060.69;;;24.11;39.80
30935;BME280;51033;42.648;23.292;2023-08-30T10:02:13;93066.69;;;24.22;39.47
30935;BME280;51033;42.648;23.292;2023-08-30T10:04:40;93055.75;;;24.26;39.27
30935;BME280;51033;42.648;23.292;2023-08-30T10:07:06;93045.38;;;24.21;38.12
30935;BME280;51033;42.648;23.292;2023-08-30T10:09:32;93052.34;;;24.22;38.69
30935;BME280;51033;42.648;23.292;2023-08-30T10:11:58;93045.09;;;24.15;38.68
30935;BME280;51033;42.648;23.292;2023-08-30T10:14:24;93054.78;;;24.16;38.91
30935;BME280;51033;42.648;23.292;2023-08-30T10:16:51;93056.91;;;24.05;38.59
30935;BME280;51033;42.648;23.292;2023-08-30T10:19:25;93053.78;;;24.07;38.96
30935;BME280;51033;42.648;23.292;2023-08-30T10:22:00;93048.16;;;24.17;38.56
30935;BME280;51033;42.648;23.292;2023-08-30T10:24:33;93031.97;;;24.10;38.81
30935;BME280;51033;42.648;23.292;2023-08-30T10:27:03;93043.72;;;24.27;39.06
30935;BME280;51033;42.648;23.292;2023-08-30T10:29:31;93052.22;;;24.29;38.47
30935;BME280;51033;42.648;23.292;2023-08-30T10:32:04;93046.22;;;24.37;39.47
30935;BME280;51033;42.648;23.292;2023-08-30T10:34:36;93054.50;;;24.30;37.73
30935;BME280;51033;42.648;23.292;2023-08-30T10:37:06;93047.00;;;24.38;37.71
30935;BME280;51033;42.648;23.292;2023-08-30T10:39:39;93042.81;;;24.33;37.76
30935;BME280;51033;42.648;23.292;2023-08-30T10:42:10;93026.22;;;24.28;37.54
30935;BME280;51033;42.648;23.292;2023-08-30T10:44:49;93033.44;;;24.54;37.77
30935;BME280;51033;42.648;23.292;2023-08-30T10:47:25;93036.16;;;24.54;36.07
30935;BME280;51033;42.648;23.292;2023-08-30T10:49:55;93029.53;;;24.55;37.39
30935;BME280;51033;42.648;23.292;2023-08-30T10:52:21;93011.38;;;24.52;37.48
30935;BME280;51033;42.648;23.292;2023-08-30T10:54:46;93021.84;;;24.54;36.50
30935;BME280;51033;42.648;23.292;2023-08-30T10:57:18;93019.31;;;24.63;36.76
30935;BME280;51033;42.648;23.292;2023-08-30T11:00:09;93029.25;;;24.69;36.79
30935;BME280;51033;42.648;23.292;2023-08-30T11:02:51;93005.94;;;24.52;36.52
30935;BME280;51033;42.648;23.292;2023-08-30T11:05:21;93016.81;;;24.72;36.89
30935;BME280;51033;42.648;23.292;2023-08-30T11:07:47;93024.78;;;24.79;36.04
30935;BME280;51033;42.648;23.292;2023-08-30T11:10:16;93021.66;;;24.80;36.66
30935;BME280;51033;42.648;23.292;2023-08-30T11:12:43;93018.44;;;24.66;36.39
30935;BME280;51033;42.648;23.292;2023-08-30T11:15:10;93017.56;;;24.72;35.83
30935;BME280;51033;42.648;23.292;2023-08-30T11:17:36;93011.41;;;24.68;36.11
30935;BME280;51033;42.648;23.292;2023-08-30T11:20:09;93012.94;;;24.69;35.15
30935;BME280;51033;42.648;23.292;2023-08-30T11:22:46;93003.22;;;24.72;35.52
30935;BME280;51033;42.648;23.292;2023-08-30T11:25:13;93010.72;;;24.64;35.03
30935;BME280;51033;42.648;23.292;2023-08-30T11:27:39;92996.94;;;24.55;34.95
30935;BME280;51033;42.648;23.292;2023-08-30T11:30:05;92994.75;;;24.66;35.08
30935;BME280;51033;42.648;23.292;2023-08-30T11:32:35;92988.00;;;24.74;34.54
30935;BME280;51033;42.648;23.292;2023-08-30T11:35:01;92984.94;;;24.89;33.03
30935;BME280;51033;42.648;23.292;2023-08-30T11:37:28;92961.56;;;24.75;32.91
30935;BME280;51033;42.648;23.292;2023-08-30T11:39:57;92973.56;;;24.77;33.97
30935;BME280;51033;42.648;23.292;2023-08-30T11:42:23;92964.41;;;24.88;33.13
30935;BME280;51033;42.648;23.292;2023-08-30T11:44:49;92976.72;;;24.92;34.47
30935;BME280;51033;42.648;23.292;2023-08-30T11:47:25;92976.56;;;24.83;33.44
30935;BME280;51033;42.648;23.292;2023-08-30T11:49:56;92964.91;;;24.82;32.67
30935;BME280;51033;42.648;23.292;2023-08-30T11:52:23;92976.53;;;24.99;32.45
30935;BME280;51033;42.648;23.292;2023-08-30T11:54:49;92970.19;;;25.06;32.59
30935;BME280;51033;42.648;23.292;2023-08-30T11:57:15;92965.41;;;25.10;33.10
30935;BME280;51033;42.648;23.292;2023-08-30T11:59:41;92965.44;;;25.26;31.76
30935;BME280;51033;42.648;23.292;2023-08-30T12:02:07;92964.56;;;25.13;32.02
30935;BME280;51033;42.648;23.292;2023-08-30T12:04:42;92945.88;;;25.15;31.91
30935;BME280;51033;42.648;23.292;2023-08-30T12:07:08;92955.06;;;25.21;31.96
30935;BME280;51033;42.648;23.292;2023-08-30T12:09:34;92960.41;;;25.24;32.97
30935;BME280;51033;42.648;23.292;2023-08-30T12:12:10;92952.31;;;25.37;33.59
30935;BME280;51033;42.648;23.292;2023-08-30T12:14:38;92967.06;;;25.40;33.23
30935;BME280;51033;42.648;23.292;2023-08-30T12:17:04;92948.75;;;25.40;33.54
30935;BME280;51033;42.648;23.292;2023-08-30T12:19:31;92929.50;;;25.47;32.30
30935;BME280;51033;42.648;23.292;2023-08-30T12:22:03;92953.22;;;25.63;31.32
30935;BME280;51033;42.648;23.292;2023-08-30T12:24:28;92947.50;;;25.74;31.07
30935;BME280;51033;42.648;23.292;2023-08-30T12:26:54;92922.13;;;25.77;29.76
30935;BME280;51033;42.648;23.292;2023-08-30T12:29:19;92934.53;;;25.94;31.36
30935;BME280;51033;42.648;23.292;2023-08-30T12:31:45;92921.03;;;25.90;30.17
30935;BME280;51033;42.648;23.292;2023-08-30T12:34:11;92915.19;;;25.88;30.79
30935;BME280;51033;42.648;23.292;2023-08-30T12:36:36;92945.38;;;26.10;33.41
30935;BME280;51033;42.648;23.292;2023-08-30T12:39:01;92943.31;;;26.14;33.27
30935;BME280;51033;42.648;23.292;2023-08-30T12:41:29;92931.06;;;26.06;33.07
30935;BME280;51033;42.648;23.292;2023-08-30T12:43:54;92930.28;;;25.77;32.88
30935;BME280;51033;42.648;23.292;2023-08-30T12:46:20;92935.41;;;25.91;32.46
30935;BME280;51033;42.648;23.292;2023-08-30T12:48:45;92923.63;;;25.94;31.02
30935;BME280;51033;42.648;23.292;2023-08-30T12:51:10;92923.22;;;26.08;31.05